createdAt,value
2018-03-01T00:00:31.089Z,19.37
2018-03-01T00:02:58.638Z,19.10
2018-03-01T00:05:26.214Z,15.67
2018-03-01T00:07:53.792Z,20.13
2018-03-01T00:10:21.363Z,21.83
2018-03-01T00:12:48.921Z,22.77
2018-03-01T00:15:16.475Z,22.23
2018-03-01T00:17:44.073Z,25.30
2018-03-01T00:20:11.621Z,20.80
2018-03-01T00:22:39.961Z,19.77
2018-03-01T00:25:08.286Z,25.77
2018-03-01T00:27:35.857Z,24.03
2018-03-01T00:30:03.400Z,21.13
2018-03-01T00:32:30.976Z,22.83
2018-03-01T00:34:58.529Z,22.37
2018-03-01T00:37:26.096Z,19.93
2018-03-01T00:39:53.644Z,20.80
2018-03-01T00:42:21.205Z,21.20
2018-03-01T00:44:49.512Z,22.37
2018-03-01T00:47:17.082Z,24.97
2018-03-01T00:49:44.646Z,20.73
2018-03-01T00:52:12.217Z,20.17
2018-03-01T00:54:39.784Z,21.17
2018-03-01T00:57:07.337Z,22.73
2018-03-01T00:59:36.257Z,25.40
2018-03-01T01:02:04.578Z,19.77
2018-03-01T01:04:32.177Z,21.47
2018-03-01T01:06:59.729Z,20.67
2018-03-01T01:09:27.298Z,19.17
2018-03-01T01:11:54.852Z,21.90
2018-03-01T01:14:22.428Z,23.07
2018-03-01T01:16:49.991Z,20.97
2018-03-01T01:19:17.569Z,19.13
2018-03-01T01:21:45.126Z,18.87
2018-03-01T01:24:12.771Z,22.30
2018-03-01T01:26:40.317Z,23.03
2018-03-01T01:29:07.885Z,22.90
2018-03-01T01:31:35.788Z,23.17
2018-03-01T01:34:03.361Z,22.27
2018-03-01T01:36:30.978Z,18.57
2018-03-01T01:38:58.514Z,21.93
2018-03-01T01:41:26.860Z,23.43
2018-03-01T01:43:54.415Z,19.80
2018-03-01T01:46:21.986Z,20.37
2018-03-01T01:48:49.544Z,18.00
2018-03-01T01:51:17.113Z,22.80
2018-03-01T01:53:44.673Z,22.23
2018-03-01T01:56:13.003Z,22.60
2018-03-01T01:58:40.545Z,21.53
2018-03-01T02:01:08.119Z,20.47
2018-03-01T02:03:35.668Z,23.20
2018-03-01T02:06:04.008Z,19.30
2018-03-01T02:08:31.552Z,19.17
2018-03-01T02:10:59.123Z,21.30
2018-03-01T02:13:26.674Z,22.97
2018-03-01T02:15:54.252Z,21.87
2018-03-01T02:18:21.820Z,17.60
2018-03-01T02:20:49.373Z,21.40
2018-03-01T02:23:16.944Z,23.63
2018-03-01T02:25:44.516Z,20.87
2018-03-01T02:28:12.852Z,21.17
2018-03-01T02:30:40.398Z,22.83
2018-03-01T02:33:07.969Z,22.10
2018-03-01T02:35:35.520Z,21.03
2018-03-01T02:38:03.853Z,21.47
2018-03-01T02:40:31.405Z,22.40
2018-03-01T02:42:58.990Z,22.50
2018-03-01T02:45:26.546Z,19.13
2018-03-01T02:47:54.123Z,22.13
2018-03-01T02:50:21.670Z,17.33
2018-03-01T02:52:50.013Z,22.53
2018-03-01T02:55:17.564Z,19.63
2018-03-01T02:57:45.140Z,18.70
2018-03-01T03:00:12.725Z,22.33
2018-03-01T03:02:40.280Z,21.17
2018-03-01T03:05:07.853Z,15.53
2018-03-01T03:07:35.414Z,23.77
2018-03-01T03:10:02.991Z,20.20
2018-03-01T03:12:30.545Z,16.67
2018-03-01T03:14:58.114Z,23.20
2018-03-01T03:17:25.673Z,20.30
2018-03-01T03:19:54.065Z,18.60
2018-03-01T03:22:22.663Z,17.13
2018-03-01T03:24:51.009Z,22.70
2018-03-01T03:27:18.558Z,21.03
2018-03-01T03:29:46.134Z,19.47
2018-03-01T03:32:13.680Z,20.67
2018-03-01T03:34:41.256Z,22.00
2018-03-01T03:37:08.820Z,21.80
2018-03-01T03:39:36.417Z,23.37
2018-03-01T03:42:03.965Z,20.47
2018-03-01T03:44:31.513Z,19.90
2018-03-01T03:46:59.861Z,21.33
2018-03-01T03:49:28.181Z,22.40
2018-03-01T03:51:55.736Z,21.53
2018-03-01T03:54:23.316Z,19.10
2018-03-01T03:56:50.868Z,17.70
2018-03-01T03:59:18.424Z,19.13
2018-03-01T04:01:46.029Z,19.20
2018-03-01T04:04:13.577Z,19.50
2018-03-01T04:06:41.194Z,21.93
2018-03-01T04:09:09.546Z,19.63
2018-03-01T04:11:37.096Z,20.43
2018-03-01T04:14:04.648Z,18.53
2018-03-01T04:16:32.231Z,16.93
2018-03-01T04:18:59.777Z,18.90
2018-03-01T04:21:28.117Z,21.90
2018-03-01T04:23:55.698Z,22.53
2018-03-01T04:26:23.253Z,21.07
2018-03-01T04:28:50.803Z,19.10
2018-03-01T04:31:18.397Z,21.50
2018-03-01T04:33:46.722Z,20.67
2018-03-01T04:36:14.279Z,21.10
2018-03-01T04:38:41.860Z,25.67
2018-03-01T04:41:10.202Z,20.47
2018-03-01T04:43:37.767Z,19.93
2018-03-01T04:46:05.348Z,20.40
2018-03-01T04:48:32.904Z,19.87
2018-03-01T04:51:00.474Z,20.67
2018-03-01T04:53:28.073Z,19.63
2018-03-01T04:55:55.625Z,17.53
2018-03-01T04:58:23.173Z,16.23
2018-03-01T05:00:51.517Z,18.60
2018-03-01T05:03:19.090Z,17.30
2018-03-01T05:05:46.689Z,21.90
2018-03-01T05:08:14.261Z,23.07
2018-03-01T05:10:41.813Z,21.20
2018-03-01T05:13:09.411Z,21.27
2018-03-01T05:15:36.996Z,24.37
2018-03-01T05:18:05.312Z,22.27
2018-03-01T05:20:32.876Z,22.67
2018-03-01T05:23:00.472Z,17.47
2018-03-01T05:25:28.020Z,20.67
2018-03-01T05:27:55.574Z,19.43
2018-03-01T05:30:23.266Z,21.83
2018-03-01T05:32:50.839Z,23.07
2018-03-01T05:35:18.448Z,18.57
2018-03-01T05:37:46.021Z,16.83
2018-03-01T05:40:13.571Z,23.37
2018-03-01T05:42:41.117Z,24.03
2018-03-01T05:45:08.698Z,19.47
2018-03-01T05:47:36.298Z,20.43
2018-03-01T05:50:03.835Z,17.87
2018-03-01T05:52:31.417Z,22.27
2018-03-01T05:54:59.001Z,22.70
2018-03-01T05:57:26.553Z,19.20
2018-03-01T05:59:54.137Z,22.73
2018-03-01T06:02:21.720Z,20.23
2018-03-01T06:04:49.392Z,18.73
2018-03-01T06:07:16.965Z,20.40
2018-03-01T06:09:44.540Z,19.37
2018-03-01T06:12:12.108Z,23.03
2018-03-01T06:14:39.676Z,18.43
2018-03-01T06:17:08.471Z,22.13
2018-03-01T06:19:36.025Z,19.70
2018-03-01T06:22:03.615Z,20.73
2018-03-01T06:24:31.183Z,22.07
2018-03-01T06:26:58.724Z,20.00
2018-03-01T06:29:27.237Z,19.30
2018-03-01T06:31:54.791Z,18.30
2018-03-01T06:34:23.106Z,20.47
2018-03-01T06:36:50.775Z,19.27
2018-03-01T06:39:18.330Z,20.83
2018-03-01T06:41:45.893Z,18.07
2018-03-01T06:44:13.483Z,17.67
2018-03-01T06:46:41.048Z,17.97
2018-03-01T06:49:08.623Z,20.20
2018-03-01T06:51:38.484Z,16.60
2018-03-01T06:54:06.049Z,19.10
2018-03-01T06:56:33.604Z,17.77
2018-03-01T06:59:01.184Z,18.07
2018-03-01T07:01:28.748Z,19.40
2018-03-01T07:03:56.309Z,18.53
2018-03-01T07:06:23.901Z,17.23
2018-03-01T07:08:51.454Z,20.40
2018-03-01T07:11:19.020Z,19.17
2018-03-01T07:13:46.604Z,17.33
2018-03-01T07:16:14.176Z,14.90
2018-03-01T07:18:41.820Z,18.37
2018-03-01T07:21:09.397Z,18.10
2018-03-01T07:23:36.960Z,23.43
2018-03-01T07:26:04.513Z,21.90
2018-03-01T07:28:32.885Z,17.37
2018-03-01T07:31:00.459Z,17.60
2018-03-01T07:33:28.015Z,18.87
2018-03-01T07:35:55.600Z,17.67
2018-03-01T07:38:23.189Z,17.57
2018-03-01T07:40:50.765Z,18.97
2018-03-01T07:43:19.862Z,16.43
2018-03-01T07:45:47.412Z,20.13
2018-03-01T07:48:15.002Z,16.57
2018-03-01T07:50:42.553Z,17.07
2018-03-01T07:53:10.158Z,17.40
2018-03-01T07:55:38.479Z,15.57
2018-03-01T07:58:06.027Z,14.50
2018-03-01T08:00:34.369Z,17.60
2018-03-01T08:03:02.260Z,17.97
2018-03-01T08:05:29.965Z,20.30
2018-03-01T08:07:57.517Z,21.33
2018-03-01T08:10:25.085Z,16.43
2018-03-01T08:12:52.666Z,19.23
2018-03-01T08:15:20.994Z,16.93
2018-03-01T08:17:48.570Z,18.17
2018-03-01T08:20:16.202Z,19.70
2018-03-01T08:22:44.521Z,17.70
2018-03-01T08:25:12.841Z,17.83
2018-03-01T08:27:40.387Z,19.07
2018-03-01T08:30:07.960Z,17.70
2018-03-01T08:32:35.522Z,17.43
2018-03-01T08:35:03.093Z,18.03
2018-03-01T08:37:30.715Z,15.97
2018-03-01T08:39:58.241Z,16.73
2018-03-01T08:42:25.833Z,15.50
2018-03-01T08:44:53.383Z,16.63
2018-03-01T08:47:20.934Z,16.93
2018-03-01T08:49:49.268Z,17.63
2018-03-01T08:52:16.818Z,15.97
2018-03-01T08:54:44.425Z,17.50
2018-03-01T08:57:11.984Z,17.33
2018-03-01T08:59:39.537Z,17.03
2018-03-01T09:02:07.108Z,14.33
2018-03-01T09:04:34.657Z,15.37
2018-03-01T09:07:03.008Z,16.07
2018-03-01T09:09:30.555Z,16.83
2018-03-01T09:11:58.114Z,15.20
2018-03-01T09:14:25.713Z,17.10
2018-03-01T09:16:53.256Z,14.90
2018-03-01T09:19:20.831Z,15.03
2018-03-01T09:21:48.374Z,15.47
2018-03-01T09:24:17.222Z,14.00
2018-03-01T09:26:44.795Z,17.80
2018-03-01T09:29:12.337Z,14.70
2018-03-01T09:31:39.958Z,16.30
2018-03-01T09:34:07.536Z,16.87
2018-03-01T09:36:35.080Z,14.33
2018-03-01T09:39:02.654Z,14.00
2018-03-01T09:41:30.206Z,14.47
2018-03-01T09:43:57.813Z,14.63
2018-03-01T09:46:25.361Z,12.97
2018-03-01T09:48:52.909Z,14.47
2018-03-01T09:51:20.485Z,14.70
2018-03-01T09:53:48.125Z,16.67
2018-03-01T09:56:16.477Z,15.07
2018-03-01T09:58:44.045Z,13.87
2018-03-01T10:01:11.596Z,15.07
2018-03-01T10:03:39.176Z,14.37
2018-03-01T10:06:06.744Z,15.53
2018-03-01T10:08:34.360Z,15.07
2018-03-01T10:11:01.901Z,18.03
2018-03-01T10:13:29.448Z,13.40
2018-03-01T10:15:58.970Z,13.17
2018-03-01T10:18:28.073Z,14.47
2018-03-01T10:20:55.641Z,14.37
2018-03-01T10:23:23.193Z,15.37
2018-03-01T10:25:50.738Z,12.53
2018-03-01T10:28:18.306Z,14.00
2018-03-01T10:30:45.855Z,12.83
2018-03-01T10:33:13.448Z,13.77
2018-03-01T10:35:40.989Z,16.43
2018-03-01T10:38:09.305Z,13.43
2018-03-01T10:40:36.869Z,11.97
2018-03-01T10:43:04.425Z,11.53
2018-03-01T10:45:32.757Z,12.83
2018-03-01T10:48:00.322Z,12.93
2018-03-01T10:50:27.882Z,13.30
2018-03-01T10:52:55.448Z,13.13
2018-03-01T10:55:22.990Z,11.80
2018-03-01T10:57:51.335Z,13.57
2018-03-01T11:00:24.468Z,12.47
2018-03-01T11:02:52.041Z,12.00
2018-03-01T11:05:19.586Z,12.90
2018-03-01T11:07:47.138Z,12.23
2018-03-01T11:10:15.326Z,12.17
2018-03-01T11:12:42.882Z,13.27
2018-03-01T11:15:11.213Z,14.07
2018-03-01T11:17:38.765Z,11.73
2018-03-01T11:20:06.314Z,11.83
2018-03-01T11:22:34.664Z,13.37
2018-03-01T11:25:02.224Z,15.67
2018-03-01T11:27:29.812Z,12.47
2018-03-01T11:29:57.368Z,14.47
2018-03-01T11:32:24.916Z,13.80
2018-03-01T11:34:52.498Z,14.70
2018-03-01T11:37:20.064Z,13.20
2018-03-01T11:39:47.653Z,12.87
2018-03-01T11:42:15.226Z,12.83
2018-03-01T11:44:42.778Z,14.90
2018-03-01T11:47:10.344Z,12.50
2018-03-01T11:49:37.886Z,12.80
2018-03-01T11:52:06.234Z,13.00
2018-03-01T11:54:33.816Z,11.80
2018-03-01T11:57:01.379Z,12.60
2018-03-01T11:59:33.036Z,11.77
2018-03-01T12:02:00.589Z,12.03
2018-03-01T12:04:28.193Z,15.20
2018-03-01T12:06:57.015Z,14.83
2018-03-01T12:09:25.627Z,12.93
2018-03-01T12:11:53.371Z,13.73
2018-03-01T12:14:20.967Z,14.40
2018-03-01T12:16:48.576Z,12.83
2018-03-01T12:19:16.207Z,13.47
2018-03-01T12:21:43.763Z,12.67
2018-03-01T12:24:11.378Z,14.67
2018-03-01T12:26:38.964Z,11.80
2018-03-01T12:29:07.306Z,12.83
2018-03-01T12:31:34.922Z,10.43
2018-03-01T12:34:03.310Z,14.47
2018-03-01T12:36:31.728Z,13.53
2018-03-01T12:38:59.269Z,13.13
2018-03-01T12:41:27.699Z,13.53
2018-03-01T12:43:55.277Z,10.37
2018-03-01T12:46:22.828Z,11.17
2018-03-01T12:48:50.406Z,12.27
2018-03-01T12:51:17.977Z,12.80
2018-03-01T12:53:45.572Z,12.53
2018-03-01T12:56:13.132Z,11.17
2018-03-01T12:58:40.674Z,11.10
2018-03-01T13:01:09.021Z,13.60
2018-03-01T13:03:36.591Z,14.33
2018-03-01T13:06:04.293Z,11.13
2018-03-01T13:08:33.532Z,12.77
2018-03-01T13:11:01.161Z,14.13
2018-03-01T13:13:28.708Z,12.13
2018-03-01T13:16:00.057Z,11.97
2018-03-01T13:18:27.625Z,13.03
2018-03-01T13:21:00.140Z,11.93
2018-03-01T13:23:27.713Z,12.00
2018-03-01T13:25:55.281Z,14.70
2018-03-01T13:28:22.851Z,13.83
2018-03-01T13:33:49.941Z,12.50
2018-03-01T13:36:17.509Z,13.10
2018-03-01T13:38:45.066Z,12.97
2018-03-01T13:41:12.647Z,14.90
2018-03-01T13:43:42.125Z,12.73
2018-03-01T13:46:10.450Z,13.27
2018-03-01T13:48:38.014Z,12.73
2018-03-01T13:51:05.569Z,13.60
2018-03-01T13:53:33.962Z,15.50
2018-03-01T13:56:01.536Z,12.37
2018-03-01T13:58:29.078Z,13.17
2018-03-01T14:00:57.413Z,12.77
2018-03-01T14:03:24.958Z,12.40
2018-03-01T14:05:54.332Z,14.50
2018-03-01T14:08:22.487Z,13.07
2018-03-01T14:10:50.074Z,13.57
2018-03-01T14:16:11.510Z,12.67
2018-03-01T14:18:41.648Z,12.80
2018-03-01T14:21:15.921Z,14.73
2018-03-01T14:23:49.102Z,12.17
2018-03-01T14:26:16.699Z,13.37
2018-03-01T14:28:44.219Z,13.00
2018-03-01T14:31:11.814Z,16.17
2018-03-01T14:33:39.358Z,16.57
2018-03-01T14:36:06.929Z,13.87
2018-03-01T14:38:34.486Z,13.97
2018-03-01T14:41:02.812Z,12.93
2018-03-01T14:43:30.384Z,13.77
2018-03-01T14:45:57.935Z,17.77
2018-03-01T14:48:25.530Z,14.43
2018-03-01T14:50:53.073Z,12.90
2018-03-01T14:53:20.621Z,14.33
2018-03-01T14:55:48.984Z,14.43
2018-03-01T14:58:16.564Z,14.03
2018-03-01T15:00:44.137Z,14.10
2018-03-01T15:03:11.686Z,13.33
2018-03-01T15:05:39.255Z,15.67
2018-03-01T15:08:06.849Z,13.93
2018-03-01T15:10:34.410Z,15.73
2018-03-01T15:13:01.996Z,16.57
2018-03-01T15:15:30.313Z,17.73
2018-03-01T15:17:57.887Z,14.37
2018-03-01T15:20:25.466Z,14.97
2018-03-01T15:22:53.012Z,15.37
2018-03-01T15:25:21.370Z,13.77
2018-03-01T15:27:49.760Z,17.23
2018-03-01T15:30:17.374Z,15.97
2018-03-01T15:32:45.018Z,14.53
2018-03-01T15:35:12.581Z,16.00
2018-03-01T15:37:40.161Z,15.63
2018-03-01T15:40:07.714Z,16.60
2018-03-01T15:42:35.257Z,16.50
2018-03-01T15:45:02.843Z,17.00
2018-03-01T15:47:30.393Z,15.97
2018-03-01T15:49:57.939Z,14.53
2018-03-01T15:52:26.328Z,15.83
2018-03-01T15:54:53.862Z,14.93
2018-03-01T15:57:21.397Z,15.13
2018-03-01T15:59:49.005Z,14.43
2018-03-01T16:02:16.568Z,17.00
2018-03-01T16:04:44.119Z,16.50
2018-03-01T16:07:11.705Z,14.73
2018-03-01T16:09:39.262Z,17.33
2018-03-01T16:12:06.805Z,16.13
2018-03-01T16:14:35.153Z,15.90
2018-03-01T16:17:02.700Z,15.03
2018-03-01T16:19:30.244Z,14.67
2018-03-01T16:21:57.821Z,16.37
2018-03-01T16:24:25.424Z,14.17
2018-03-01T16:26:53.690Z,14.27
2018-03-01T16:29:21.274Z,17.33
2018-03-01T16:31:48.837Z,18.77
2018-03-01T16:34:16.450Z,16.90
2018-03-01T16:36:44.019Z,17.90
2018-03-01T16:39:11.569Z,16.40
2018-03-01T16:41:39.136Z,20.97
2018-03-01T16:44:06.687Z,18.13
2018-03-01T16:46:34.237Z,17.37
2018-03-01T16:49:02.577Z,18.57
2018-03-01T16:51:30.891Z,18.70
2018-03-01T16:53:58.465Z,19.97
2018-03-01T16:56:26.020Z,18.27
2018-03-01T16:58:53.589Z,19.63
2018-03-01T17:01:21.954Z,21.07
2018-03-01T17:03:49.510Z,18.97
2018-03-01T17:06:17.124Z,19.13
2018-03-01T17:08:44.689Z,19.47
2018-03-01T17:11:12.246Z,19.73
2018-03-01T17:13:39.821Z,19.13
2018-03-01T17:16:07.369Z,19.83
2018-03-01T17:18:34.949Z,16.13
2018-03-01T17:21:02.500Z,19.87
2018-03-01T17:23:30.817Z,19.47
2018-03-01T17:25:58.387Z,23.63
2018-03-01T17:28:25.939Z,21.67
2018-03-01T17:30:53.522Z,20.03
2018-03-01T17:33:21.067Z,23.37
2018-03-01T17:35:49.402Z,17.57
2018-03-01T17:38:17.003Z,18.77
2018-03-01T17:40:44.560Z,21.57
2018-03-01T17:43:12.153Z,20.93
2018-03-01T17:45:39.718Z,20.07
2018-03-01T17:48:07.275Z,19.83
2018-03-01T17:50:34.861Z,20.20
2018-03-01T17:53:02.417Z,20.00
2018-03-01T17:55:29.998Z,21.20
2018-03-01T17:57:57.565Z,20.83
2018-03-01T18:00:25.127Z,22.27
2018-03-01T18:02:52.708Z,18.77
2018-03-01T18:05:20.273Z,21.57
2018-03-01T18:07:47.871Z,19.53
2018-03-01T18:10:15.436Z,21.07
2018-03-01T18:12:43.764Z,21.30
2018-03-01T18:15:12.097Z,20.90
2018-03-01T18:17:39.646Z,21.57
2018-03-01T18:20:07.230Z,25.47
2018-03-01T18:22:34.786Z,22.57
2018-03-01T18:25:02.373Z,23.17
2018-03-01T18:27:29.953Z,21.70
2018-03-01T18:29:57.510Z,20.93
2018-03-01T18:32:25.081Z,26.87
2018-03-01T18:34:52.628Z,22.40
2018-03-01T18:37:21.019Z,23.27
2018-03-01T18:39:49.371Z,21.53
2018-03-01T18:42:16.946Z,24.93
2018-03-01T18:44:44.519Z,20.40
2018-03-01T18:47:12.079Z,23.40
2018-03-01T18:49:39.699Z,22.57
2018-03-01T18:52:08.017Z,22.03
2018-03-01T18:54:35.579Z,24.37
2018-03-01T18:57:03.162Z,28.17
2018-03-01T18:59:30.721Z,22.03
2018-03-01T19:01:58.326Z,20.80
2018-03-01T19:04:25.870Z,23.57
2018-03-01T19:06:53.413Z,23.60
2018-03-01T19:09:21.756Z,22.17
2018-03-01T19:11:49.325Z,24.90
2018-03-01T19:14:16.912Z,23.80
2018-03-01T19:16:44.467Z,21.83
2018-03-01T19:19:12.017Z,23.50
2018-03-01T19:21:39.602Z,22.07
2018-03-01T19:24:07.161Z,20.70
2018-03-01T19:26:34.757Z,24.80
2018-03-01T19:29:02.837Z,23.43
2018-03-01T19:31:30.392Z,23.07
2018-03-01T19:33:57.969Z,20.47
2018-03-01T19:36:25.520Z,22.70
2018-03-01T19:38:53.098Z,21.43
2018-03-01T19:41:20.678Z,22.57
2018-03-01T19:46:24.837Z,24.00
2018-03-01T19:48:52.410Z,25.90
2018-03-01T19:51:20.149Z,20.87
2018-03-01T19:53:54.214Z,26.50
2018-03-01T19:56:21.833Z,28.07
2018-03-01T19:58:50.213Z,23.27
2018-03-01T20:01:17.783Z,22.70
2018-03-01T20:03:46.158Z,24.87
2018-03-01T20:06:13.721Z,23.90
2018-03-01T20:08:41.314Z,24.83
2018-03-01T20:11:08.877Z,22.93
2018-03-01T20:13:36.461Z,22.97
2018-03-01T20:16:04.052Z,23.33
2018-03-01T20:18:32.369Z,25.97
2018-03-01T20:21:59.539Z,27.30
2018-03-01T20:24:27.093Z,22.20
2018-03-01T20:26:54.692Z,21.67
2018-03-01T20:29:22.239Z,24.43
2018-03-01T20:31:49.797Z,25.73
2018-03-01T20:34:18.164Z,24.57
2018-03-01T20:36:45.717Z,21.87
2018-03-01T20:39:13.302Z,22.93
2018-03-01T20:41:40.856Z,24.97
2018-03-01T20:44:08.427Z,25.83
2018-03-01T20:46:36.013Z,25.13
2018-03-01T20:49:03.580Z,23.83
2018-03-01T20:51:31.174Z,24.80
2018-03-01T20:53:59.488Z,23.30
2018-03-01T20:56:27.049Z,23.00
2018-03-01T20:58:55.388Z,22.87
2018-03-01T21:01:22.957Z,22.27
2018-03-01T21:03:50.553Z,24.83
2018-03-01T21:06:18.107Z,27.63
2018-03-01T21:08:45.674Z,27.43
2018-03-01T21:11:13.269Z,24.70
2018-03-01T21:13:40.823Z,27.77
2018-03-01T21:16:08.406Z,25.50
2018-03-01T21:18:35.962Z,23.23
2018-03-01T21:21:03.550Z,24.43
2018-03-01T21:23:31.129Z,20.57
2018-03-01T21:25:58.672Z,24.53
2018-03-01T21:28:26.264Z,24.57
2018-03-01T21:30:53.825Z,24.67
2018-03-01T21:33:21.385Z,22.03
2018-03-01T21:35:49.737Z,25.17
2018-03-01T21:38:18.087Z,27.10
2018-03-01T21:40:45.685Z,25.73
2018-03-01T21:43:14.004Z,24.70
2018-03-01T21:45:41.560Z,24.63
2018-03-01T21:48:09.134Z,24.13
2018-03-01T21:50:36.688Z,23.20
2018-03-01T21:53:05.034Z,26.50
2018-03-01T21:55:32.593Z,22.70
2018-03-01T21:58:00.146Z,25.60
2018-03-01T22:00:27.724Z,23.43
2018-03-01T22:02:55.280Z,24.60
2018-03-01T22:05:22.857Z,23.83
2018-03-01T22:07:50.412Z,24.63
2018-03-01T22:10:18.748Z,23.33
2018-03-01T22:12:46.316Z,26.63
2018-03-01T22:15:17.486Z,24.07
2018-03-01T22:17:45.429Z,25.90
2018-03-01T22:20:13.008Z,22.87
2018-03-01T22:22:40.580Z,27.13
2018-03-01T22:25:08.160Z,22.57
2018-03-01T22:27:35.716Z,23.07
2018-03-01T22:30:03.300Z,23.90
2018-03-01T22:32:30.879Z,22.37
2018-03-01T22:34:58.480Z,25.30
2018-03-01T22:37:26.041Z,26.30
2018-03-01T22:39:53.613Z,27.47
2018-03-01T22:42:21.205Z,27.10
2018-03-01T22:44:48.777Z,23.37
2018-03-01T22:47:16.376Z,32.13
2018-03-01T22:49:43.950Z,25.17
2018-03-01T22:52:11.533Z,30.03
2018-03-01T22:54:39.085Z,26.83
2018-03-01T22:57:06.684Z,25.87
2018-03-01T22:59:35.117Z,29.17
2018-03-01T23:02:02.701Z,31.00
2018-03-01T23:04:31.020Z,28.23
2018-03-01T23:06:58.605Z,25.63
2018-03-01T23:09:26.169Z,28.60
2018-03-01T23:11:53.749Z,24.87
2018-03-01T23:14:21.300Z,28.20
2018-03-01T23:16:48.896Z,26.10
2018-03-01T23:19:16.470Z,25.13
2018-03-01T23:21:44.033Z,24.63
2018-03-01T23:24:11.619Z,27.17
2018-03-01T23:26:39.165Z,26.57
2018-03-01T23:29:06.745Z,25.30
2018-03-01T23:31:34.300Z,26.30
2018-03-01T23:34:01.890Z,27.57
2018-03-01T23:36:29.445Z,24.50
2018-03-01T23:38:57.033Z,27.27
2018-03-01T23:41:24.595Z,31.90
2018-03-01T23:43:52.176Z,27.27
2018-03-01T23:46:19.737Z,30.10
2018-03-01T23:48:47.325Z,31.20
2018-03-01T23:51:14.888Z,27.63
2018-03-01T23:53:42.475Z,28.83
2018-03-01T23:56:10.037Z,30.83
2018-03-01T23:58:37.617Z,30.20
